sensor_id;sensor_type;location;lat;lon;timestamp;temperature;humidity
13794;DHT22;31160;49.500;7.772;2023-07-16T00:01:54;17.80;99.90
13794;DHT22;31160;49.500;7.772;2023-07-16T00:04:21;17.70;99.90
13794;DHT22;31160;49.500;7.772;2023-07-16T00:06:48;17.70;99.90
13794;DHT22;31160;49.500;7.772;2023-07-16T00:09:15;17.70;99.90
13794;DHT22;31160;49.500;7.772;2023-07-16T00:11:42;17.80;99.90
13794;DHT22;31160;49.500;7.772;2023-07-16T00:14:10;17.80;99.90
13794;DHT22;31160;49.500;7.772;2023-07-16T00:16:38;17.70;99.90
13794;DHT22;31160;49.500;7.772;2023-07-16T00:19:05;17.70;99.90
13794;DHT22;31160;49.500;7.772;2023-07-16T00:21:32;17.70;99.90
13794;DHT22;31160;49.500;7.772;2023-07-16T00:23:59;17.70;99.90
13794;DHT22;31160;49.500;7.772;2023-07-16T00:26:26;17.70;99.90
13794;DHT22;31160;49.500;7.772;2023-07-16T00:28:52;17.70;99.90
13794;DHT22;31160;49.500;7.772;2023-07-16T00:31:19;17.70;99.90
13794;DHT22;31160;49.500;7.772;2023-07-16T00:33:46;17.70;99.90
13794;DHT22;31160;49.500;7.772;2023-07-16T00:36:13;17.60;99.90
13794;DHT22;31160;49.500;7.772;2023-07-16T00:38:41;17.60;99.90
13794;DHT22;31160;49.500;7.772;2023-07-16T00:41:09;17.60;99.90
13794;DHT22;31160;49.500;7.772;2023-07-16T00:43:35;17.70;99.90
13794;DHT22;31160;49.500;7.772;2023-07-16T00:46:02;17.60;99.90
13794;DHT22;31160;49.500;7.772;2023-07-16T00:48:29;17.60;99.90
13794;DHT22;31160;49.500;7.772;2023-07-16T00:50:56;17.70;99.90
13794;DHT22;31160;49.500;7.772;2023-07-16T00:53:23;17.70;99.90
13794;DHT22;31160;49.500;7.772;2023-07-16T00:55:50;17.70;99.90
13794;DHT22;31160;49.500;7.772;2023-07-16T00:58:18;17.60;99.90
13794;DHT22;31160;49.500;7.772;2023-07-16T01:00:45;17.50;99.90
13794;DHT22;31160;49.500;7.772;2023-07-16T01:03:13;17.70;99.90
13794;DHT22;31160;49.500;7.772;2023-07-16T01:05:45;17.60;99.90
13794;DHT22;31160;49.500;7.772;2023-07-16T01:08:20;17.60;99.90
13794;DHT22;31160;49.500;7.772;2023-07-16T01:10:49;17.70;99.90
13794;DHT22;31160;49.500;7.772;2023-07-16T01:13:16;17.60;99.90
13794;DHT22;31160;49.500;7.772;2023-07-16T01:15:43;17.70;99.90
13794;DHT22;31160;49.500;7.772;2023-07-16T01:18:10;17.60;99.90
13794;DHT22;31160;49.500;7.772;2023-07-16T01:20:37;17.60;99.90
13794;DHT22;31160;49.500;7.772;2023-07-16T01:26:28;17.50;99.90
13794;DHT22;31160;49.500;7.772;2023-07-16T01:29:28;17.60;99.90
13794;DHT22;31160;49.500;7.772;2023-07-16T01:31:59;17.50;99.90
13794;DHT22;31160;49.500;7.772;2023-07-16T01:34:31;17.50;99.90
13794;DHT22;31160;49.500;7.772;2023-07-16T01:37:01;17.40;99.90
13794;DHT22;31160;49.500;7.772;2023-07-16T01:39:28;17.30;99.90
13794;DHT22;31160;49.500;7.772;2023-07-16T01:41:54;17.30;99.90
13794;DHT22;31160;49.500;7.772;2023-07-16T01:44:21;17.30;99.90
13794;DHT22;31160;49.500;7.772;2023-07-16T01:47:20;17.10;99.90
13794;DHT22;31160;49.500;7.772;2023-07-16T01:49:41;17.30;99.90
13794;DHT22;31160;49.500;7.772;2023-07-16T01:52:09;17.20;99.90
13794;DHT22;31160;49.500;7.772;2023-07-16T01:54:36;17.20;99.90
13794;DHT22;31160;49.500;7.772;2023-07-16T01:57:03;17.20;99.90
13794;DHT22;31160;49.500;7.772;2023-07-16T01:59:30;17.20;99.90
13794;DHT22;31160;49.500;7.772;2023-07-16T02:01:57;17.30;99.90
13794;DHT22;31160;49.500;7.772;2023-07-16T02:04:24;17.20;99.90
13794;DHT22;31160;49.500;7.772;2023-07-16T02:06:50;17.20;99.90
13794;DHT22;31160;49.500;7.772;2023-07-16T02:09:19;17.10;99.90
13794;DHT22;31160;49.500;7.772;2023-07-16T02:11:46;17.10;99.90
13794;DHT22;31160;49.500;7.772;2023-07-16T02:14:13;17.00;99.90
13794;DHT22;31160;49.500;7.772;2023-07-16T02:16:41;17.00;99.90
13794;DHT22;31160;49.500;7.772;2023-07-16T02:19:07;16.90;99.90
13794;DHT22;31160;49.500;7.772;2023-07-16T02:21:34;16.90;99.90
13794;DHT22;31160;49.500;7.772;2023-07-16T02:24:01;16.80;99.90
13794;DHT22;31160;49.500;7.772;2023-07-16T02:26:28;16.70;99.90
13794;DHT22;31160;49.500;7.772;2023-07-16T02:28:55;16.70;99.90
13794;DHT22;31160;49.500;7.772;2023-07-16T02:31:22;16.70;99.90
13794;DHT22;31160;49.500;7.772;2023-07-16T02:33:49;16.50;99.90
13794;DHT22;31160;49.500;7.772;2023-07-16T02:36:15;16.60;99.90
13794;DHT22;31160;49.500;7.772;2023-07-16T02:38:42;16.40;99.90
13794;DHT22;31160;49.500;7.772;2023-07-16T02:41:09;16.40;99.90
13794;DHT22;31160;49.500;7.772;2023-07-16T02:43:36;16.40;99.90
13794;DHT22;31160;49.500;7.772;2023-07-16T02:46:03;16.50;99.90
13794;DHT22;31160;49.500;7.772;2023-07-16T02:48:30;16.50;99.90
13794;DHT22;31160;49.500;7.772;2023-07-16T02:50:56;16.50;99.90
13794;DHT22;31160;49.500;7.772;2023-07-16T02:53:23;16.40;99.90
13794;DHT22;31160;49.500;7.772;2023-07-16T02:55:50;16.30;99.90
13794;DHT22;31160;49.500;7.772;2023-07-16T02:58:17;16.30;99.90
13794;DHT22;31160;49.500;7.772;2023-07-16T03:00:43;16.30;99.90
13794;DHT22;31160;49.500;7.772;2023-07-16T03:03:10;16.30;99.90
13794;DHT22;31160;49.500;7.772;2023-07-16T03:05:37;16.30;99.90
13794;DHT22;31160;49.500;7.772;2023-07-16T03:08:04;16.30;99.90
13794;DHT22;31160;49.500;7.772;2023-07-16T03:10:31;16.40;99.90
13794;DHT22;31160;49.500;7.772;2023-07-16T03:12:58;16.30;99.90
13794;DHT22;31160;49.500;7.772;2023-07-16T03:15:24;16.20;99.90
13794;DHT22;31160;49.500;7.772;2023-07-16T03:17:51;16.20;99.90
13794;DHT22;31160;49.500;7.772;2023-07-16T03:20:19;16.40;99.90
13794;DHT22;31160;49.500;7.772;2023-07-16T03:22:45;16.40;99.90
13794;DHT22;31160;49.500;7.772;2023-07-16T03:25:12;16.40;99.90
13794;DHT22;31160;49.500;7.772;2023-07-16T03:27:40;16.30;99.90
13794;DHT22;31160;49.500;7.772;2023-07-16T03:30:07;16.40;99.90
13794;DHT22;31160;49.500;7.772;2023-07-16T03:32:34;16.20;99.90
13794;DHT22;31160;49.500;7.772;2023-07-16T03:35:18;16.20;99.90
13794;DHT22;31160;49.500;7.772;2023-07-16T03:37:45;16.20;99.90
13794;DHT22;31160;49.500;7.772;2023-07-16T03:40:18;16.20;99.90
13794;DHT22;31160;49.500;7.772;2023-07-16T03:42:46;16.30;99.90
13794;DHT22;31160;49.500;7.772;2023-07-16T03:45:13;16.20;99.90
13794;DHT22;31160;49.500;7.772;2023-07-16T03:47:40;16.20;99.90
13794;DHT22;31160;49.500;7.772;2023-07-16T03:50:08;16.30;99.90
13794;DHT22;31160;49.500;7.772;2023-07-16T03:52:34;16.20;99.90
13794;DHT22;31160;49.500;7.772;2023-07-16T03:55:01;16.10;99.90
13794;DHT22;31160;49.500;7.772;2023-07-16T03:57:29;16.10;99.90
13794;DHT22;31160;49.500;7.772;2023-07-16T03:59:56;16.20;99.90
13794;DHT22;31160;49.500;7.772;2023-07-16T04:02:24;16.20;99.90
13794;DHT22;31160;49.500;7.772;2023-07-16T04:04:51;16.10;99.90
13794;DHT22;31160;49.500;7.772;2023-07-16T04:07:18;16.10;99.90
13794;DHT22;31160;49.500;7.772;2023-07-16T04:09:44;16.10;99.90
13794;DHT22;31160;49.500;7.772;2023-07-16T04:12:11;16.20;99.90
13794;DHT22;31160;49.500;7.772;2023-07-16T04:14:38;16.30;99.90
13794;DHT22;31160;49.500;7.772;2023-07-16T04:17:05;16.40;99.90
13794;DHT22;31160;49.500;7.772;2023-07-16T04:19:32;16.50;99.90
13794;DHT22;31160;49.500;7.772;2023-07-16T04:21:58;16.50;99.90
13794;DHT22;31160;49.500;7.772;2023-07-16T04:24:25;16.50;99.90
13794;DHT22;31160;49.500;7.772;2023-07-16T04:26:53;16.70;99.90
13794;DHT22;31160;49.500;7.772;2023-07-16T04:29:20;16.70;99.90
13794;DHT22;31160;49.500;7.772;2023-07-16T04:31:47;16.90;99.90
13794;DHT22;31160;49.500;7.772;2023-07-16T04:34:14;16.70;99.90
13794;DHT22;31160;49.500;7.772;2023-07-16T04:36:42;16.80;99.90
13794;DHT22;31160;49.500;7.772;2023-07-16T04:39:09;16.90;99.90
13794;DHT22;31160;49.500;7.772;2023-07-16T04:41:36;17.00;99.90
13794;DHT22;31160;49.500;7.772;2023-07-16T04:44:04;17.20;99.90
13794;DHT22;31160;49.500;7.772;2023-07-16T04:46:31;17.20;99.90
13794;DHT22;31160;49.500;7.772;2023-07-16T04:48:58;17.30;99.90
13794;DHT22;31160;49.500;7.772;2023-07-16T04:51:25;17.50;99.90
13794;DHT22;31160;49.500;7.772;2023-07-16T04:53:52;17.60;99.90
13794;DHT22;31160;49.500;7.772;2023-07-16T04:56:19;17.40;99.90
13794;DHT22;31160;49.500;7.772;2023-07-16T04:58:46;17.30;99.90
13794;DHT22;31160;49.500;7.772;2023-07-16T05:01:13;17.40;99.90
13794;DHT22;31160;49.500;7.772;2023-07-16T05:03:40;17.40;99.90
13794;DHT22;31160;49.500;7.772;2023-07-16T05:06:06;17.20;99.90
13794;DHT22;31160;49.500;7.772;2023-07-16T05:08:33;17.40;99.90
13794;DHT22;31160;49.500;7.772;2023-07-16T05:11:01;17.50;99.90
13794;DHT22;31160;49.500;7.772;2023-07-16T05:13:28;17.80;99.90
13794;DHT22;31160;49.500;7.772;2023-07-16T05:15:55;17.90;99.90
13794;DHT22;31160;49.500;7.772;2023-07-16T05:18:22;18.20;99.90
13794;DHT22;31160;49.500;7.772;2023-07-16T05:20:49;18.10;99.90
13794;DHT22;31160;49.500;7.772;2023-07-16T05:23:16;18.30;99.90
13794;DHT22;31160;49.500;7.772;2023-07-16T05:25:49;18.10;99.90
13794;DHT22;31160;49.500;7.772;2023-07-16T05:28:17;18.30;99.90
13794;DHT22;31160;49.500;7.772;2023-07-16T05:30:44;18.40;99.90
13794;DHT22;31160;49.500;7.772;2023-07-16T05:33:11;18.30;99.90
13794;DHT22;31160;49.500;7.772;2023-07-16T05:35:39;18.10;99.90
13794;DHT22;31160;49.500;7.772;2023-07-16T05:38:06;18.10;99.90
13794;DHT22;31160;49.500;7.772;2023-07-16T05:40:33;18.00;99.90
13794;DHT22;31160;49.500;7.772;2023-07-16T05:43:00;18.10;99.90
13794;DHT22;31160;49.500;7.772;2023-07-16T05:45:27;18.70;99.90
13794;DHT22;31160;49.500;7.772;2023-07-16T05:47:53;19.00;99.90
13794;DHT22;31160;49.500;7.772;2023-07-16T05:50:20;18.80;99.90
13794;DHT22;31160;49.500;7.772;2023-07-16T05:52:47;18.70;99.90
13794;DHT22;31160;49.500;7.772;2023-07-16T05:55:15;18.60;99.90
13794;DHT22;31160;49.500;7.772;2023-07-16T05:57:42;18.90;99.90
13794;DHT22;31160;49.500;7.772;2023-07-16T06:00:09;19.60;99.90
13794;DHT22;31160;49.500;7.772;2023-07-16T06:02:42;20.10;99.90
13794;DHT22;31160;49.500;7.772;2023-07-16T06:05:09;20.50;99.90
13794;DHT22;31160;49.500;7.772;2023-07-16T06:07:36;20.50;99.90
13794;DHT22;31160;49.500;7.772;2023-07-16T06:10:02;22.90;99.90
13794;DHT22;31160;49.500;7.772;2023-07-16T06:12:29;24.40;99.90
13794;DHT22;31160;49.500;7.772;2023-07-16T06:14:56;25.20;99.90
13794;DHT22;31160;49.500;7.772;2023-07-16T06:17:22;24.30;99.90
13794;DHT22;31160;49.500;7.772;2023-07-16T06:19:49;23.40;99.90
13794;DHT22;31160;49.500;7.772;2023-07-16T06:22:18;23.10;99.90
13794;DHT22;31160;49.500;7.772;2023-07-16T06:24:45;22.80;99.90
13794;DHT22;31160;49.500;7.772;2023-07-16T06:27:11;21.60;99.90
13794;DHT22;31160;49.500;7.772;2023-07-16T06:29:38;21.50;99.90
13794;DHT22;31160;49.500;7.772;2023-07-16T06:32:05;21.10;99.90
13794;DHT22;31160;49.500;7.772;2023-07-16T06:34:32;21.30;99.90
13794;DHT22;31160;49.500;7.772;2023-07-16T06:36:59;21.10;99.90
13794;DHT22;31160;49.500;7.772;2023-07-16T06:39:26;21.10;99.90
13794;DHT22;31160;49.500;7.772;2023-07-16T06:41:53;20.90;99.90
13794;DHT22;31160;49.500;7.772;2023-07-16T06:44:22;21.20;99.90
13794;DHT22;31160;49.500;7.772;2023-07-16T06:46:49;21.20;99.90
13794;DHT22;31160;49.500;7.772;2023-07-16T06:49:15;21.60;99.90
13794;DHT22;31160;49.500;7.772;2023-07-16T06:51:42;21.40;99.90
13794;DHT22;31160;49.500;7.772;2023-07-16T06:54:09;20.90;99.90
13794;DHT22;31160;49.500;7.772;2023-07-16T06:56:36;21.00;99.90
13794;DHT22;31160;49.500;7.772;2023-07-16T06:59:02;21.20;99.90
13794;DHT22;31160;49.500;7.772;2023-07-16T07:01:29;21.10;99.90
13794;DHT22;31160;49.500;7.772;2023-07-16T07:03:56;21.10;99.90
13794;DHT22;31160;49.500;7.772;2023-07-16T07:06:23;21.00;99.90
13794;DHT22;31160;49.500;7.772;2023-07-16T07:08:51;20.90;99.90
13794;DHT22;31160;49.500;7.772;2023-07-16T07:11:18;21.00;99.90
13794;DHT22;31160;49.500;7.772;2023-07-16T07:13:45;20.80;99.90
13794;DHT22;31160;49.500;7.772;2023-07-16T07:16:12;20.70;99.90
13794;DHT22;31160;49.500;7.772;2023-07-16T07:18:39;20.60;99.90
13794;DHT22;31160;49.500;7.772;2023-07-16T07:21:06;20.60;99.90
13794;DHT22;31160;49.500;7.772;2023-07-16T07:23:33;21.00;99.90
13794;DHT22;31160;49.500;7.772;2023-07-16T07:26:00;20.70;99.90
13794;DHT22;31160;49.500;7.772;2023-07-16T07:28:27;20.50;99.90
13794;DHT22;31160;49.500;7.772;2023-07-16T07:30:54;20.10;99.90
13794;DHT22;31160;49.500;7.772;2023-07-16T07:33:21;19.90;99.90
13794;DHT22;31160;49.500;7.772;2023-07-16T07:35:48;20.20;99.90
13794;DHT22;31160;49.500;7.772;2023-07-16T07:38:15;20.30;99.90
13794;DHT22;31160;49.500;7.772;2023-07-16T07:40:43;20.80;99.90
13794;DHT22;31160;49.500;7.772;2023-07-16T07:43:10;21.00;99.90
13794;DHT22;31160;49.500;7.772;2023-07-16T07:45:37;21.20;99.90
13794;DHT22;31160;49.500;7.772;2023-07-16T07:48:04;21.40;99.90
13794;DHT22;31160;49.500;7.772;2023-07-16T07:50:31;21.30;99.90
13794;DHT22;31160;49.500;7.772;2023-07-16T07:52:57;20.60;99.90
13794;DHT22;31160;49.500;7.772;2023-07-16T07:55:24;20.60;99.90
13794;DHT22;31160;49.500;7.772;2023-07-16T07:57:51;21.10;99.90
13794;DHT22;31160;49.500;7.772;2023-07-16T08:00:18;20.70;99.90
13794;DHT22;31160;49.500;7.772;2023-07-16T08:02:45;21.00;99.90
13794;DHT22;31160;49.500;7.772;2023-07-16T08:05:12;21.00;99.90
13794;DHT22;31160;49.500;7.772;2023-07-16T08:07:39;21.00;99.90
13794;DHT22;31160;49.500;7.772;2023-07-16T08:10:06;20.60;99.90
13794;DHT22;31160;49.500;7.772;2023-07-16T08:12:32;20.30;99.90
13794;DHT22;31160;49.500;7.772;2023-07-16T08:14:59;20.50;99.90
13794;DHT22;31160;49.500;7.772;2023-07-16T08:17:26;20.70;99.90
13794;DHT22;31160;49.500;7.772;2023-07-16T08:19:53;20.50;99.90
13794;DHT22;31160;49.500;7.772;2023-07-16T08:22:20;20.60;99.90
13794;DHT22;31160;49.500;7.772;2023-07-16T08:24:47;20.50;99.90
13794;DHT22;31160;49.500;7.772;2023-07-16T08:27:13;20.40;99.90
13794;DHT22;31160;49.500;7.772;2023-07-16T08:29:40;20.60;99.90
13794;DHT22;31160;49.500;7.772;2023-07-16T08:32:07;20.70;99.90
13794;DHT22;31160;49.500;7.772;2023-07-16T08:34:34;20.80;99.90
13794;DHT22;31160;49.500;7.772;2023-07-16T08:37:01;20.80;99.90
13794;DHT22;31160;49.500;7.772;2023-07-16T08:39:30;21.00;99.90
13794;DHT22;31160;49.500;7.772;2023-07-16T08:41:57;21.30;99.90
13794;DHT22;31160;49.500;7.772;2023-07-16T08:44:24;21.50;99.90
13794;DHT22;31160;49.500;7.772;2023-07-16T08:46:51;21.60;99.90
13794;DHT22;31160;49.500;7.772;2023-07-16T08:49:19;21.50;99.90
13794;DHT22;31160;49.500;7.772;2023-07-16T08:51:49;21.80;99.90
13794;DHT22;31160;49.500;7.772;2023-07-16T08:54:16;21.40;99.90
13794;DHT22;31160;49.500;7.772;2023-07-16T08:56:44;21.80;99.90
13794;DHT22;31160;49.500;7.772;2023-07-16T08:59:10;22.20;99.90
13794;DHT22;31160;49.500;7.772;2023-07-16T09:01:37;22.40;99.90
13794;DHT22;31160;49.500;7.772;2023-07-16T09:04:04;22.30;99.50
13794;DHT22;31160;49.500;7.772;2023-07-16T09:06:31;22.20;98.70
13794;DHT22;31160;49.500;7.772;2023-07-16T09:08:58;21.60;99.70
13794;DHT22;31160;49.500;7.772;2023-07-16T09:11:25;21.50;99.80
13794;DHT22;31160;49.500;7.772;2023-07-16T09:13:52;21.60;99.20
13794;DHT22;31160;49.500;7.772;2023-07-16T09:16:19;21.60;99.10
13794;DHT22;31160;49.500;7.772;2023-07-16T09:18:47;21.80;99.70
13794;DHT22;31160;49.500;7.772;2023-07-16T09:21:14;21.90;99.20
13794;DHT22;31160;49.500;7.772;2023-07-16T09:23:42;21.90;97.90
13794;DHT22;31160;49.500;7.772;2023-07-16T09:26:09;21.90;98.50
13794;DHT22;31160;49.500;7.772;2023-07-16T09:28:36;22.00;98.90
13794;DHT22;31160;49.500;7.772;2023-07-16T09:31:04;21.90;97.60
13794;DHT22;31160;49.500;7.772;2023-07-16T09:33:32;21.70;98.30
13794;DHT22;31160;49.500;7.772;2023-07-16T09:35:59;21.70;98.90
13794;DHT22;31160;49.500;7.772;2023-07-16T09:38:27;21.80;98.20
13794;DHT22;31160;49.500;7.772;2023-07-16T09:40:56;22.10;98.50
13794;DHT22;31160;49.500;7.772;2023-07-16T09:43:23;22.00;98.70
13794;DHT22;31160;49.500;7.772;2023-07-16T09:45:50;22.20;97.80
13794;DHT22;31160;49.500;7.772;2023-07-16T09:48:16;22.40;97.80
13794;DHT22;31160;49.500;7.772;2023-07-16T09:50:50;22.40;96.80
13794;DHT22;31160;49.500;7.772;2023-07-16T09:53:19;22.40;96.80
13794;DHT22;31160;49.500;7.772;2023-07-16T09:55:48;22.60;96.90
13794;DHT22;31160;49.500;7.772;2023-07-16T09:58:17;22.70;95.90
13794;DHT22;31160;49.500;7.772;2023-07-16T10:00:47;22.70;96.20
13794;DHT22;31160;49.500;7.772;2023-07-16T10:03:15;22.70;96.00
13794;DHT22;31160;49.500;7.772;2023-07-16T10:05:43;22.80;96.10
13794;DHT22;31160;49.500;7.772;2023-07-16T10:08:18;22.90;96.00
13794;DHT22;31160;49.500;7.772;2023-07-16T10:10:48;23.30;95.10
13794;DHT22;31160;49.500;7.772;2023-07-16T10:13:16;23.10;94.00
13794;DHT22;31160;49.500;7.772;2023-07-16T10:15:56;23.30;94.50
13794;DHT22;31160;49.500;7.772;2023-07-16T10:18:30;23.30;95.00
13794;DHT22;31160;49.500;7.772;2023-07-16T10:21:08;23.20;94.60
13794;DHT22;31160;49.500;7.772;2023-07-16T10:26:07;23.50;93.90
13794;DHT22;31160;49.500;7.772;2023-07-16T10:28:37;23.70;92.90
13794;DHT22;31160;49.500;7.772;2023-07-16T10:31:05;23.70;93.30
13794;DHT22;31160;49.500;7.772;2023-07-16T10:33:34;23.50;92.90
13794;DHT22;31160;49.500;7.772;2023-07-16T10:36:04;23.80;93.30
13794;DHT22;31160;49.500;7.772;2023-07-16T10:38:40;24.00;91.80
13794;DHT22;31160;49.500;7.772;2023-07-16T10:41:09;24.20;92.40
13794;DHT22;31160;49.500;7.772;2023-07-16T10:43:36;24.10;91.20
13794;DHT22;31160;49.500;7.772;2023-07-16T10:46:03;23.90;91.90
13794;DHT22;31160;49.500;7.772;2023-07-16T10:48:29;24.20;92.00
13794;DHT22;31160;49.500;7.772;2023-07-16T10:50:57;24.40;90.70
13794;DHT22;31160;49.500;7.772;2023-07-16T10:53:23;24.20;90.20
13794;DHT22;31160;49.500;7.772;2023-07-16T10:55:50;24.40;90.80
13794;DHT22;31160;49.500;7.772;2023-07-16T10:58:17;24.60;91.20
13794;DHT22;31160;49.500;7.772;2023-07-16T11:00:44;24.80;90.70
13794;DHT22;31160;49.500;7.772;2023-07-16T11:03:15;24.60;90.80
13794;DHT22;31160;49.500;7.772;2023-07-16T11:05:45;24.10;90.80
13794;DHT22;31160;49.500;7.772;2023-07-16T11:08:22;23.90;91.80
13794;DHT22;31160;49.500;7.772;2023-07-16T11:10:58;23.80;90.40
13794;DHT22;31160;49.500;7.772;2023-07-16T11:13:29;23.80;90.80
13794;DHT22;31160;49.500;7.772;2023-07-16T11:15:55;23.80;91.70
13794;DHT22;31160;49.500;7.772;2023-07-16T11:18:23;24.10;89.70
13794;DHT22;31160;49.500;7.772;2023-07-16T11:20:53;24.30;89.60
13794;DHT22;31160;49.500;7.772;2023-07-16T11:23:20;24.30;90.00
13794;DHT22;31160;49.500;7.772;2023-07-16T11:25:49;24.30;88.00
13794;DHT22;31160;49.500;7.772;2023-07-16T11:28:16;24.30;87.60
13794;DHT22;31160;49.500;7.772;2023-07-16T11:30:43;24.40;88.30
13794;DHT22;31160;49.500;7.772;2023-07-16T11:33:11;24.20;88.10
13794;DHT22;31160;49.500;7.772;2023-07-16T11:35:41;24.30;90.00
13794;DHT22;31160;49.500;7.772;2023-07-16T11:38:08;24.40;88.60
13794;DHT22;31160;49.500;7.772;2023-07-16T11:40:35;24.10;89.40
13794;DHT22;31160;49.500;7.772;2023-07-16T11:43:11;24.20;90.20
13794;DHT22;31160;49.500;7.772;2023-07-16T11:45:39;24.60;90.10
13794;DHT22;31160;49.500;7.772;2023-07-16T11:48:06;24.60;88.10
13794;DHT22;31160;49.500;7.772;2023-07-16T11:50:32;24.20;89.60
13794;DHT22;31160;49.500;7.772;2023-07-16T11:53:01;24.00;90.50
13794;DHT22;31160;49.500;7.772;2023-07-16T11:55:30;24.30;89.40
13794;DHT22;31160;49.500;7.772;2023-07-16T11:57:57;24.50;89.30
13794;DHT22;31160;49.500;7.772;2023-07-16T12:00:26;24.90;87.20
13794;DHT22;31160;49.500;7.772;2023-07-16T12:02:52;24.70;86.40
13794;DHT22;31160;49.500;7.772;2023-07-16T12:05:21;24.50;84.90
13794;DHT22;31160;49.500;7.772;2023-07-16T12:07:56;24.30;86.60
13794;DHT22;31160;49.500;7.772;2023-07-16T12:10:23;24.70;86.90
13794;DHT22;31160;49.500;7.772;2023-07-16T12:12:49;24.70;85.50
13794;DHT22;31160;49.500;7.772;2023-07-16T12:15:16;24.80;85.90
13794;DHT22;31160;49.500;7.772;2023-07-16T12:17:43;24.60;85.00
13794;DHT22;31160;49.500;7.772;2023-07-16T12:20:10;24.60;85.90
13794;DHT22;31160;49.500;7.772;2023-07-16T12:22:37;24.50;87.20
13794;DHT22;31160;49.500;7.772;2023-07-16T12:25:04;24.80;87.40
13794;DHT22;31160;49.500;7.772;2023-07-16T12:27:31;25.00;85.00
13794;DHT22;31160;49.500;7.772;2023-07-16T12:29:57;25.40;85.80
13794;DHT22;31160;49.500;7.772;2023-07-16T12:32:24;25.10;85.10
13794;DHT22;31160;49.500;7.772;2023-07-16T12:34:51;24.90;85.50
13794;DHT22;31160;49.500;7.772;2023-07-16T12:37:18;25.30;86.20
13794;DHT22;31160;49.500;7.772;2023-07-16T12:39:44;24.90;87.50
13794;DHT22;31160;49.500;7.772;2023-07-16T12:42:11;24.90;83.60
13794;DHT22;31160;49.500;7.772;2023-07-16T12:44:38;24.80;83.40
13794;DHT22;31160;49.500;7.772;2023-07-16T12:47:05;24.60;84.50
13794;DHT22;31160;49.500;7.772;2023-07-16T12:49:35;24.40;85.20
13794;DHT22;31160;49.500;7.772;2023-07-16T12:52:02;25.10;83.80
13794;DHT22;31160;49.500;7.772;2023-07-16T12:54:29;25.20;87.40
13794;DHT22;31160;49.500;7.772;2023-07-16T12:56:55;25.00;85.50
13794;DHT22;31160;49.500;7.772;2023-07-16T12:59:22;24.90;82.80
13794;DHT22;31160;49.500;7.772;2023-07-16T13:01:51;25.00;84.00
13794;DHT22;31160;49.500;7.772;2023-07-16T13:04:18;25.10;85.40
13794;DHT22;31160;49.500;7.772;2023-07-16T13:06:45;25.40;83.80
13794;DHT22;31160;49.500;7.772;2023-07-16T13:09:15;25.40;85.20
13794;DHT22;31160;49.500;7.772;2023-07-16T13:11:42;25.30;84.00
13794;DHT22;31160;49.500;7.772;2023-07-16T13:14:09;25.30;82.50
13794;DHT22;31160;49.500;7.772;2023-07-16T13:16:36;24.90;82.80
13794;DHT22;31160;49.500;7.772;2023-07-16T13:19:03;25.00;85.00
13794;DHT22;31160;49.500;7.772;2023-07-16T13:21:30;25.70;84.30
13794;DHT22;31160;49.500;7.772;2023-07-16T13:23:57;25.60;83.10
13794;DHT22;31160;49.500;7.772;2023-07-16T13:26:23;25.40;81.30
13794;DHT22;31160;49.500;7.772;2023-07-16T13:28:50;25.30;80.90
13794;DHT22;31160;49.500;7.772;2023-07-16T13:31:17;25.40;82.40
13794;DHT22;31160;49.500;7.772;2023-07-16T13:33:44;25.30;81.20
13794;DHT22;31160;49.500;7.772;2023-07-16T13:36:11;25.50;83.10
13794;DHT22;31160;49.500;7.772;2023-07-16T13:38:38;25.70;80.30
13794;DHT22;31160;49.500;7.772;2023-07-16T13:41:04;25.40;83.80
13794;DHT22;31160;49.500;7.772;2023-07-16T13:43:31;25.70;80.30
13794;DHT22;31160;49.500;7.772;2023-07-16T13:45:58;25.40;79.50
13794;DHT22;31160;49.500;7.772;2023-07-16T13:48:24;25.50;80.80
13794;DHT22;31160;49.500;7.772;2023-07-16T13:50:51;25.40;79.10
13794;DHT22;31160;49.500;7.772;2023-07-16T13:53:18;25.20;82.20
13794;DHT22;31160;49.500;7.772;2023-07-16T13:55:45;25.20;79.90
13794;DHT22;31160;49.500;7.772;2023-07-16T13:58:12;25.50;79.40
13794;DHT22;31160;49.500;7.772;2023-07-16T14:00:41;25.30;81.10
13794;DHT22;31160;49.500;7.772;2023-07-16T14:03:07;25.00;79.80
13794;DHT22;31160;49.500;7.772;2023-07-16T14:05:34;25.20;81.40
13794;DHT22;31160;49.500;7.772;2023-07-16T14:08:05;25.40;82.00
13794;DHT22;31160;49.500;7.772;2023-07-16T14:10:32;25.50;81.40
13794;DHT22;31160;49.500;7.772;2023-07-16T14:12:59;25.60;80.50
13794;DHT22;31160;49.500;7.772;2023-07-16T14:15:26;25.50;82.00
13794;DHT22;31160;49.500;7.772;2023-07-16T14:17:53;25.40;79.80
13794;DHT22;31160;49.500;7.772;2023-07-16T14:20:20;25.30;80.00
13794;DHT22;31160;49.500;7.772;2023-07-16T14:22:47;25.10;80.80
13794;DHT22;31160;49.500;7.772;2023-07-16T14:25:14;25.20;80.40
13794;DHT22;31160;49.500;7.772;2023-07-16T14:27:40;25.30;81.10
13794;DHT22;31160;49.500;7.772;2023-07-16T14:30:07;25.70;79.20
13794;DHT22;31160;49.500;7.772;2023-07-16T14:32:35;25.80;78.10
13794;DHT22;31160;49.500;7.772;2023-07-16T14:35:02;25.60;79.60
13794;DHT22;31160;49.500;7.772;2023-07-16T14:37:30;25.50;80.10
13794;DHT22;31160;49.500;7.772;2023-07-16T14:39:57;25.50;81.10
13794;DHT22;31160;49.500;7.772;2023-07-16T14:42:23;25.50;78.80
13794;DHT22;31160;49.500;7.772;2023-07-16T14:44:50;25.40;80.00
13794;DHT22;31160;49.500;7.772;2023-07-16T14:47:17;25.50;79.50
13794;DHT22;31160;49.500;7.772;2023-07-16T14:49:44;25.30;79.20
13794;DHT22;31160;49.500;7.772;2023-07-16T14:52:11;25.10;79.70
13794;DHT22;31160;49.500;7.772;2023-07-16T14:54:37;25.10;80.00
13794;DHT22;31160;49.500;7.772;2023-07-16T14:57:04;25.10;78.50
13794;DHT22;31160;49.500;7.772;2023-07-16T14:59:32;25.10;78.50
13794;DHT22;31160;49.500;7.772;2023-07-16T15:01:58;25.00;79.20
13794;DHT22;31160;49.500;7.772;2023-07-16T15:04:25;25.20;78.60
13794;DHT22;31160;49.500;7.772;2023-07-16T15:06:52;25.00;78.90
13794;DHT22;31160;49.500;7.772;2023-07-16T15:09:19;24.50;79.10
13794;DHT22;31160;49.500;7.772;2023-07-16T15:11:45;24.30;81.00
13794;DHT22;31160;49.500;7.772;2023-07-16T15:14:12;24.30;81.70
13794;DHT22;31160;49.500;7.772;2023-07-16T15:16:40;24.50;81.90
13794;DHT22;31160;49.500;7.772;2023-07-16T15:19:06;24.40;80.90
13794;DHT22;31160;49.500;7.772;2023-07-16T15:21:35;24.60;79.50
13794;DHT22;31160;49.500;7.772;2023-07-16T15:24:06;24.70;79.90
13794;DHT22;31160;49.500;7.772;2023-07-16T15:26:32;24.90;79.50
13794;DHT22;31160;49.500;7.772;2023-07-16T15:28:59;25.00;79.80
13794;DHT22;31160;49.500;7.772;2023-07-16T15:31:26;25.00;78.70
13794;DHT22;31160;49.500;7.772;2023-07-16T15:33:56;25.10;78.50
13794;DHT22;31160;49.500;7.772;2023-07-16T15:36:25;25.00;79.30
13794;DHT22;31160;49.500;7.772;2023-07-16T15:38:53;25.20;78.60